createdAt,value
2023-05-25T05:01:00.186Z,15.60
2023-05-25T05:03:46.875Z,14.90
2023-05-25T05:06:34.708Z,20.23
2023-05-25T05:09:20.992Z,21.77
2023-05-25T05:12:11.333Z,21.10
2023-05-25T10:02:38.941Z,9.43
2023-05-25T10:05:25.607Z,11.20
2023-05-25T10:08:13.879Z,10.65
2023-05-25T10:11:00.741Z,7.20
2023-05-25T10:13:48.280Z,9.90
2023-05-25T12:04:56.032Z,9.05
2023-05-25T12:07:46.620Z,9.85
2023-05-25T12:10:32.958Z,7.65
2023-05-25T12:13:19.767Z,9.48
2023-05-25T12:16:06.584Z,7.57
2023-05-25T12:18:55.056Z,9.35
2023-05-25T12:21:46.434Z,7.47
2023-05-25T12:24:34.891Z,10.25
2023-05-25T12:27:25.992Z,8.50
2023-05-25T12:30:12.795Z,9.18
2023-05-25T12:37:47.961Z,13.10
2023-05-25T12:40:56.339Z,8.32
2023-05-25T12:43:58.639Z,9.30
2023-05-25T12:46:57.980Z,11.40
2023-05-25T12:49:52.127Z,9.00
2023-05-25T12:52:43.066Z,8.77
2023-05-25T12:55:40.526Z,10.48
2023-05-25T12:58:29.436Z,9.57
2023-05-25T13:01:16.119Z,12.43
2023-05-25T13:04:02.267Z,7.20
2023-05-25T13:06:48.680Z,9.07
2023-05-25T13:09:36.918Z,11.05
2023-05-25T13:12:27.522Z,14.80
2023-05-25T13:15:22.267Z,13.35
2023-05-25T13:18:12.035Z,13.15
2023-05-25T13:20:58.617Z,11.77
2023-05-25T13:23:45.486Z,14.73
2023-05-25T13:26:34.484Z,14.95
2023-05-25T13:29:20.821Z,13.13
2023-05-25T13:45:44.997Z,12.15
2023-05-25T13:49:38.573Z,17.85
2023-05-25T14:03:00.605Z,16.50
2023-05-25T14:05:47.169Z,18.63
2023-05-25T14:08:33.693Z,13.18
2023-05-25T14:11:24.304Z,16.88
2023-05-25T14:15:28.997Z,12.85
2023-05-25T14:18:17.903Z,15.77
2023-05-25T14:21:05.403Z,17.25
2023-05-25T14:23:52.160Z,12.43
2023-05-25T14:26:39.118Z,20.67
2023-05-25T14:29:26.204Z,15.23
2023-05-25T14:32:13.517Z,15.68
2023-05-25T14:35:00.988Z,19.15
2023-05-25T14:37:47.582Z,12.93
2023-05-25T14:40:36.103Z,15.88
2023-05-25T14:43:22.858Z,20.15
2023-05-25T14:46:10.733Z,19.73
2023-05-25T14:48:57.516Z,16.40
2023-05-25T14:51:45.289Z,23.15
2023-05-25T14:54:32.008Z,17.05
2023-05-25T14:57:18.395Z,16.08
2023-05-25T16:04:33.694Z,16.80
2023-05-25T16:07:43.280Z,15.68
2023-05-25T16:10:39.986Z,15.40
2023-05-25T16:13:26.106Z,15.63
2023-05-25T16:30:04.493Z,21.02
2023-05-25T16:42:49.675Z,21.58
2023-05-25T16:45:37.513Z,14.88
2023-05-25T16:48:24.502Z,19.38
2023-05-25T16:51:14.883Z,16.65
2023-05-25T16:54:01.408Z,17.75
2023-05-25T16:57:27.739Z,19.23
2023-05-25T17:06:02.420Z,21.30
2023-05-25T17:22:05.364Z,18.98
2023-05-25T17:25:39.911Z,23.48
2023-05-25T18:19:09.182Z,20.25
2023-05-25T18:22:11.374Z,28.20
2023-05-25T18:25:00.202Z,24.13
2023-05-25T18:28:06.786Z,21.95
2023-05-25T18:33:47.084Z,24.35
2023-05-25T18:37:17.728Z,25.73
2023-05-25T18:40:12.802Z,25.52
2023-05-25T18:43:00.935Z,17.85
2023-05-25T18:45:53.279Z,21.17
2023-05-25T18:52:32.448Z,24.67
2023-05-25T18:55:19.289Z,29.48
2023-05-25T19:06:03.647Z,27.63
2023-05-25T19:09:10.712Z,26.88
2023-05-25T19:13:26.105Z,30.20
2023-05-25T19:16:58.281Z,20.85
2023-05-25T19:19:44.866Z,25.98
2023-05-25T19:22:35.831Z,25.33
2023-05-25T19:25:25.824Z,22.33
2023-05-25T19:28:14.225Z,19.83
2023-05-25T19:41:16.961Z,27.38
2023-05-25T19:44:12.935Z,23.25
2023-05-25T19:47:09.121Z,24.90
2023-05-25T19:49:58.909Z,29.83
2023-05-25T19:52:45.133Z,22.30
2023-05-25T19:55:31.382Z,29.30
2023-05-25T19:58:19.535Z,31.23
2023-05-25T22:02:28.710Z,30.20
2023-05-25T22:05:15.693Z,28.30
2023-05-25T22:08:02.533Z,28.33
2023-05-25T22:10:49.270Z,28.65
2023-05-25T22:13:35.873Z,30.35
